Nearby METAR Reports

 

EBAW - Antwerp/Deurne, Belgium
Distance from station: SSE 9km
Mise à jour: 20/06/2024 06:50
clair
clair
 Wind from ENE
Vent: ENE 6 km/h
Température: 13°C
Point de rosée: 11°C
Humidité: 88%
Baromètre: 1020 hPa
Résumé: clair
Visibility: greater than 10 km
2024/06/20 04:50 EBAW 200450Z 06003KT 010V090 CAVOK 13/11 Q1020 NOSIG
EHWO - Woensdrecht Rnla, Netherlands
Distance from station: NNO 20km
Mise à jour: 20/06/2024 06:55
couvert
couvert
 Wind from ENE
Vent: ENE 11 km/h
Température: 12°C
Point de rosée: 11°C
Humidité: 94%
Baromètre: 1020 hPa
Clouds: couvert
Visibility: 10 km
Cloud details: couvert 5791 m
2024/06/20 04:55 EHWO 200455Z AUTO 07006KT 020V100 9999 OVC190 12/11 Q1020 BLU
 
EBBR - Brussels Nationa, Belgium
Distance from station: S 43km
Mise à jour: 20/06/2024 06:50
clair
clair
 Wind from E
Vent: E 6 km/h
Température: 13°C
Point de rosée: 11°C
Humidité: 88%
Baromètre: 1020 hPa
Résumé: clair
Visibility: greater than 10 km
2024/06/20 04:50 EBBR 200450Z 08003KT 050V130 CAVOK 13/11 Q1020 NOSIG
EHGR - Gilze-Rijen Rnla, Netherlands
Distance from station: NE 47km
Mise à jour: 20/06/2024 06:55
couvert
couvert
 Wind from NE
Vent: NE 7 km/h
Température: 13°C
Point de rosée: 11°C
Humidité: 88%
Baromètre: 1020 hPa
Clouds: couvert
Visibility: 10 km
Cloud details: couvert 4572 m
2024/06/20 04:55 EHGR 200455Z AUTO 05004KT 350V140 9999 OVC150 13/11 Q1020 BLU
 
EBDT - Schaffen, Belgium
Distance from station: ESE 54km
Mise à jour: 20/06/2024 06:55
nuageux
nuageux
 Wind from E
Vent: E 6 km/h
Température: 14°C
Point de rosée: 11°C
Humidité: 82%
Baromètre: 1019 hPa
Clouds: nuageux
Visibility: 10 km
Cloud details: nuageux 5182 m
2024/06/20 04:55 EBDT 200455Z AUTO 08003KT 9999 BKN170/// 14/11 Q1019 BLU
EHFS - Vlissingen, Netherlands
Distance from station: ONO 60km
Mise à jour: 20/06/2024 06:55
partiellement nuageux
partiellement nuageux
 Wind from NNE
Vent: NNE 13 km/h
Température: 13°C
Point de rosée: 12°C
Humidité: 94%
Baromètre: 1019 hPa
Clouds: partiellement nuageux
Visibility: 10 km
2024/06/20 04:55 EHFS 200455Z AUTO 02007KT 340V050 9999 NSC 13/12 Q1019
 
EBBE - Beauvechain (baf, Belgium
Distance from station: SSE 64km
Mise à jour: 20/06/2024 06:55
nuageux
nuageux
 Wind from ENE
Vent: ENE 6 km/h
Température: 13°C
Point de rosée: 11°C
Humidité: 88%
Baromètre: 1020 hPa
Clouds: nuageux
Visibility: 10 km
Cloud details: partiellement nuageux 3658 m
nuageux 4572 m
2024/06/20 04:55 EBBE 200455Z 06003KT 9999 SCT120 BKN150 13/11 Q1020 BLU BLU
EHEH - Eindhoven Rnlafb, Netherlands
Distance from station: ENE 69km
Mise à jour: 20/06/2024 06:55
couvert
couvert
 Wind from NE
Vent: NE 15 km/h
Température: 14°C
Point de rosée: 11°C
Humidité: 82%
Baromètre: 1019 hPa
Clouds: couvert
Visibility: 10 km
Cloud details: couvert 5791 m
2024/06/20 04:55 EHEH 200455Z AUTO 05008KT 9999 OVC190 14/11 Q1019 BLU NOSIG
 
EBBL - Kleine-Brogel(Ba, Belgium
Distance from station: E 74km
Mise à jour: 20/06/2024 06:55
nuageux
nuageux
 Wind from ENE
Vent: ENE 11 km/h
Température: 13°C
Point de rosée: 11°C
Humidité: 88%
Baromètre: 1019 hPa
Clouds: nuageux
Visibility: 10 km
Cloud details: nuageux 5486 m
2024/06/20 04:55 EBBL 200455Z AUTO 07006KT 9999 BKN180/// 13/11 Q1019 BLU
EHRD - Rotterdam Airpor, Netherlands
Distance from station: N 75km
Mise à jour: 20/06/2024 06:55
partiellement nuageux
partiellement nuageux
 Wind from NNE
Vent: NNE 9 km/h
Température: 12°C
Point de rosée: 10°C
Humidité: 88%
Baromètre: 1020 hPa
Clouds: partiellement nuageux
Visibility: 10 km
2024/06/20 04:55 EHRD 200455Z AUTO 02005KT 350V060 9999 NSC 12/10 Q1020 NOSIG
 
EHSC - Goeree Le Sea, Netherlands
Distance from station: NO 89km
Mise à jour: 20/06/2024 06:55

 Wind from ENE
Vent: ENE 24 km/h
Température: 14°C
Point de rosée: 11°C
Humidité: 82%
Baromètre: 1021 hPa
Visibility: 10 km
2024/06/20 04:55 EHSC 200455Z AUTO 06013KT 9999 ///////// 14/11 Q1021 W16/H9
EBCI - Charleroi/Gossel, Belgium
Distance from station: S 90km
Mise à jour: 20/06/2024 06:50
clair
clair
 Wind from ENE
Vent: ENE 11 km/h
Température: 13°C
Point de rosée: 11°C
Humidité: 88%
Baromètre: 1020 hPa
Résumé: clair
Visibility: greater than 10 km
2024/06/20 04:50 EBCI 200450Z 06006KT 030V090 CAVOK 13/11 Q1020 NOSIG
 
EBCV - Chievres Ab, Belgium
Distance from station: SSO 90km
Mise à jour: 20/06/2024 06:55
nuageux
nuageux
 Wind from varies
Vent: varies 2 km/h
Température: 13°C
Point de rosée: 12°C
Humidité: 94%
Baromètre: 1019 hPa
Clouds: nuageux
Visibility: 10 km
Cloud details: Few Clouds 2438 m
nuageux 3048 m
nuageux 3353 m
2024/06/20 04:55 EBCV 200455Z AUTO VRB01KT 9999 FEW080/// BKN100/// BKN110/// 13/12 Q1019 BLU
EHVK - Volkel Rnlafb, Netherlands
Distance from station: ENE 97km
Mise à jour: 20/06/2024 06:55
nuageux
nuageux
 Wind from NE
Vent: NE 13 km/h
Température: 13°C
Point de rosée: 11°C
Humidité: 88%
Baromètre: 1020 hPa
Clouds: nuageux
Visibility: 10 km
Cloud details: nuageux 9449 m
2024/06/20 04:55 EHVK 200455Z AUTO 05007KT 9999 BKN310 13/11 Q1020 BLU
 
EBLG - Bierset/Liege (c, Belgium
Distance from station: SE 102km
Mise à jour: 20/06/2024 06:50
clair
clair
 Wind from varies
Vent: varies 4 km/h
Température: 14°C
Point de rosée: 11°C
Humidité: 82%
Baromètre: 1019 hPa
Résumé: clair
Visibility: greater than 10 km
2024/06/20 04:50 EBLG 200450Z VRB02KT CAVOK 14/11 Q1019 NOSIG
EHBK - Zuid-Limburg/Bee, Netherlands
Distance from station: ESE 102km
Mise à jour: 20/06/2024 06:55
partiellement nuageux
partiellement nuageux
 Wind from E
Vent: E 13 km/h
Température: 13°C
Point de rosée: 11°C
Humidité: 88%
Baromètre: 1019 hPa
Clouds: partiellement nuageux
Visibility: 10 km
2024/06/20 04:55 EHBK 200455Z AUTO 08007KT 050V120 9999 NSC 13/11 Q1019 NOSIG
 
EBOS - Oostende Airport, Belgium
Distance from station: O 108km
Mise à jour: 20/06/2024 06:50
clair
clair
 Wind from ENE
Vent: ENE 13 km/h
Température: 14°C
Point de rosée: 11°C
Humidité: 82%
Baromètre: 1020 hPa
Résumé: clair
Visibility: greater than 10 km
2024/06/20 04:50 EBOS 200450Z 06007KT CAVOK 14/11 Q1020 NOSIG
EHSA - Euro Platform, Netherlands
Distance from station: NO 112km
Mise à jour: 20/06/2024 06:55

 Wind from NE
Vent: NE 22 km/h
Température: 14°C
Point de rosée: 11°C
Humidité: 82%
Baromètre: 1021 hPa
Visibility: 10 km
2024/06/20 04:55 EHSA 200455Z AUTO 05012KT 9999 ///////// 14/11 Q1021 W15/H9
 
EHAM - Amsterdam/Schiph, Netherlands
Distance from station: NNE 118km
Mise à jour: 20/06/2024 06:55
clair
clair
 Wind from ENE
Vent: ENE 11 km/h
Température: 12°C
Point de rosée: 11°C
Humidité: 94%
Baromètre: 1021 hPa
Résumé: clair
Visibility: greater than 10 km
2024/06/20 04:55 EHAM 200455Z 06006KT CAVOK 12/11 Q1021 NOSIG
ETNG - Geilenkirchen(Na, Germany
Distance from station: ESE 118km
Mise à jour: 20/06/2024 06:50
clair
clair
 Wind from ENE
Vent: ENE 9 km/h
Température: 13°C
Point de rosée: 12°C
Humidité: 94%
Baromètre: 1019 hPa
Résumé: clair
Visibility: greater than 10 km
2024/06/20 04:50 ETNG 200450Z 07005KT CAVOK 13/12 Q1019